createdAt,value
2023-01-26T19:40:10.356Z,5.39
2023-01-26T19:41:10.437Z,5.39
2023-01-26T19:42:10.641Z,5.35
2023-01-26T19:43:10.847Z,5.35
2023-01-26T19:44:11.060Z,5.43
2023-01-26T19:45:11.596Z,5.39
2023-01-26T19:46:11.582Z,5.38
2023-01-26T19:47:11.692Z,5.39
2023-01-26T19:48:11.943Z,5.39
2023-01-26T19:49:12.205Z,5.36
2023-01-26T19:50:12.415Z,5.33
2023-01-26T19:51:12.661Z,5.39
2023-01-26T19:52:12.913Z,5.36
2023-01-26T19:53:13.210Z,5.29
2023-01-26T19:54:13.407Z,5.28
2023-01-26T19:55:14.032Z,5.38
2023-01-26T19:56:13.866Z,5.35
2023-01-26T19:57:14.115Z,5.41
2023-01-26T19:58:16.522Z,5.33
2023-01-26T19:59:14.595Z,5.41
2023-01-26T20:00:14.797Z,5.46
2023-01-26T20:01:15.068Z,5.33
2023-01-26T20:02:15.331Z,5.41
2023-01-26T20:03:15.450Z,5.36
2023-01-26T20:04:15.722Z,5.41
2023-01-26T20:05:15.906Z,5.43
2023-01-26T20:06:16.142Z,5.43
2023-01-26T20:07:16.388Z,5.28
2023-01-26T20:08:16.631Z,5.36
2023-01-26T20:09:16.902Z,5.33
2023-01-26T20:10:17.141Z,5.26
2023-01-26T20:11:17.360Z,5.32
2023-01-26T20:12:17.596Z,5.25
2023-01-26T20:13:17.846Z,5.35
2023-01-26T20:14:18.224Z,5.35
2023-01-26T20:15:18.346Z,5.41
2023-01-26T20:16:18.643Z,5.30
2023-01-26T20:17:18.853Z,5.41
2023-01-26T20:18:19.110Z,5.43
2023-01-26T20:19:19.487Z,5.43
2023-01-26T20:20:19.629Z,5.44
2023-01-26T20:21:19.863Z,5.35
2023-01-26T20:22:20.099Z,5.46
2023-01-26T20:23:20.330Z,5.44
2023-01-26T20:24:20.610Z,5.35
2023-01-26T20:25:20.840Z,5.35
2023-01-26T20:26:21.035Z,5.39
2023-01-26T20:27:21.270Z,5.36
2023-01-26T20:28:21.511Z,5.38
2023-01-26T20:29:21.792Z,5.35
2023-01-26T20:30:21.999Z,5.38
2023-01-26T20:31:22.346Z,5.35
2023-01-26T20:32:22.485Z,5.39
2023-01-26T20:33:22.734Z,5.36
2023-01-26T20:34:22.990Z,5.32
2023-01-26T20:35:23.220Z,5.32
2023-01-26T20:36:23.529Z,5.29
2023-01-26T20:37:23.721Z,5.25
2023-01-26T20:38:23.975Z,5.28
2023-01-26T20:39:24.213Z,5.39
2023-01-26T20:40:24.505Z,5.28
2023-01-26T20:41:24.719Z,5.38
2023-01-26T20:42:24.979Z,5.33
2023-01-26T20:43:25.254Z,5.25
2023-01-26T20:44:25.542Z,5.28
2023-01-26T20:45:25.741Z,5.30
2023-01-26T20:46:25.983Z,5.25
2023-01-26T20:47:26.246Z,5.33
2023-01-26T20:48:26.548Z,5.38
2023-01-26T20:49:26.774Z,5.36
2023-01-26T20:50:26.865Z,5.28
2023-01-26T20:51:27.087Z,5.29
2023-01-26T20:52:27.617Z,5.26
2023-01-26T20:53:27.516Z,5.25
2023-01-26T20:54:27.772Z,5.29
2023-01-26T20:55:28.001Z,5.43
2023-01-26T20:56:28.200Z,5.32
2023-01-26T20:57:28.416Z,5.29
2023-01-26T20:58:28.632Z,5.30
2023-01-26T20:59:28.889Z,5.32
2023-01-26T21:00:29.094Z,5.29
2023-01-26T21:01:29.285Z,5.32
2023-01-26T21:02:29.933Z,5.21
2023-01-26T21:03:29.770Z,5.21
2023-01-26T21:04:30.181Z,5.23
2023-01-26T21:05:30.203Z,5.30
2023-01-26T21:06:30.597Z,5.21
2023-01-26T21:07:30.643Z,5.26
2023-01-26T21:08:30.887Z,5.23
2023-01-26T21:09:31.308Z,5.21
2023-01-26T21:10:31.362Z,5.12
2023-01-26T21:11:31.753Z,5.23
2023-01-26T21:12:31.820Z,5.25
2023-01-26T21:13:32.051Z,5.18
2023-01-26T21:14:32.313Z,5.15
2023-01-26T21:15:32.522Z,5.21
2023-01-26T21:16:32.923Z,5.21
2023-01-26T21:17:33.006Z,5.17
2023-01-26T21:18:33.408Z,5.17
2023-01-26T21:19:33.488Z,5.12
2023-01-26T21:20:33.720Z,5.07
2023-01-26T21:21:33.945Z,5.14
2023-01-26T21:22:34.176Z,5.21
2023-01-26T21:23:34.442Z,5.23
2023-01-26T21:24:34.639Z,5.21
2023-01-26T21:25:34.947Z,5.12
2023-01-26T21:26:35.104Z,5.23
2023-01-26T21:27:35.319Z,5.26
2023-01-26T21:28:35.557Z,5.21
2023-01-26T21:29:35.781Z,5.23
2023-01-26T21:30:36.204Z,5.23
2023-01-26T21:31:36.271Z,5.25
2023-01-26T21:32:36.592Z,5.25
2023-01-26T21:33:36.688Z,5.29
2023-01-26T21:34:36.922Z,5.25
2023-01-26T21:35:37.161Z,5.28
2023-01-26T21:36:37.361Z,5.30
2023-01-26T21:37:37.574Z,5.25
2023-01-26T21:38:37.815Z,5.33
2023-01-26T21:39:38.018Z,5.21
2023-01-26T21:40:38.314Z,5.33
2023-01-26T21:41:38.472Z,5.33
2023-01-26T21:42:38.679Z,5.32
2023-01-26T21:43:38.963Z,5.29
2023-01-26T21:44:39.119Z,5.28
2023-01-26T21:45:39.405Z,5.28
2023-01-26T21:46:39.580Z,5.29
2023-01-26T21:47:39.809Z,5.23
2023-01-26T21:48:40.068Z,5.29
2023-01-26T21:49:40.383Z,5.29
2023-01-26T21:50:40.498Z,5.32
2023-01-26T21:51:40.729Z,5.39
2023-01-26T21:52:40.968Z,5.43
2023-01-26T21:53:41.201Z,5.38
2023-01-26T21:54:41.467Z,5.44
2023-01-26T21:55:41.713Z,5.36
2023-01-26T21:56:41.879Z,5.38
2023-01-26T21:57:42.098Z,5.39
2023-01-26T21:58:42.310Z,5.36
2023-01-26T21:59:42.560Z,5.43
2023-01-26T22:00:42.765Z,5.35
2023-01-26T22:01:42.972Z,5.38
2023-01-26T22:02:43.196Z,5.48
2023-01-26T22:03:43.423Z,5.41
2023-01-26T22:04:43.824Z,5.43
2023-01-26T22:05:43.916Z,5.39
2023-01-26T22:06:44.182Z,5.44
2023-01-26T22:07:44.419Z,5.41
2023-01-26T22:08:44.660Z,5.43
2023-01-26T22:09:44.920Z,5.43
2023-01-26T22:10:45.112Z,5.39
2023-01-26T22:11:45.342Z,5.33
2023-01-26T22:12:45.806Z,5.43
2023-01-26T22:13:45.830Z,5.46
2023-01-26T22:14:46.014Z,5.46
2023-01-26T22:15:46.235Z,5.39
2023-01-26T22:16:46.571Z,5.39
2023-01-26T22:17:46.696Z,5.33
2023-01-26T22:18:46.941Z,5.43
2023-01-26T22:19:47.214Z,5.59
2023-01-26T22:20:47.428Z,5.38
2023-01-26T22:21:47.707Z,5.48
2023-01-26T22:22:47.947Z,5.54
2023-01-26T22:23:48.216Z,5.51
2023-01-26T22:24:48.497Z,5.47
2023-01-26T22:25:48.754Z,5.56
2023-01-26T22:26:49.002Z,5.54
2023-01-26T22:27:49.276Z,5.48
2023-01-26T22:28:49.519Z,5.51
2023-01-26T22:29:49.840Z,5.51
2023-01-26T22:30:50.098Z,5.50
2023-01-26T22:31:50.379Z,5.53
2023-01-26T22:32:50.574Z,5.51
2023-01-26T22:33:50.842Z,5.54
2023-01-26T22:34:51.165Z,5.57
2023-01-26T22:35:51.350Z,5.64
2023-01-26T22:36:51.641Z,5.57
2023-01-26T22:37:51.939Z,5.57
2023-01-26T22:38:52.140Z,5.54
2023-01-26T22:39:52.521Z,5.53
2023-01-26T22:40:52.666Z,5.61
2023-01-26T22:41:52.910Z,5.50
2023-01-26T22:42:53.158Z,5.61
2023-01-26T22:43:53.414Z,5.50
2023-01-26T22:44:53.887Z,5.53
2023-01-26T22:45:54.047Z,5.64
2023-01-26T22:46:54.265Z,5.56
2023-01-26T22:47:54.630Z,5.56
2023-01-26T22:48:54.676Z,5.61
2023-01-26T22:49:55.137Z,5.62
2023-01-26T22:50:55.180Z,5.73
2023-01-26T22:51:55.557Z,5.59
2023-01-26T22:52:55.656Z,5.62
2023-01-26T22:53:55.908Z,5.59
2023-01-26T22:54:56.165Z,5.59
2023-01-26T22:55:56.432Z,5.65
2023-01-26T22:56:56.719Z,5.69
2023-01-26T22:57:57.031Z,5.65
2023-01-26T22:58:59.620Z,5.69
2023-01-26T22:59:57.324Z,5.66
2023-01-26T23:00:57.562Z,5.72
2023-01-26T23:01:57.811Z,5.65
2023-01-26T23:02:57.976Z,5.72
2023-01-26T23:03:58.268Z,5.76
2023-01-26T23:04:58.402Z,5.64
2023-01-26T23:05:58.629Z,5.64
2023-01-26T23:06:58.940Z,5.75
2023-01-26T23:07:59.091Z,5.62
2023-01-26T23:08:59.322Z,5.68
2023-01-26T23:09:59.544Z,5.61
2023-01-26T23:10:59.794Z,5.62
2023-01-26T23:12:00.041Z,5.65
2023-01-26T23:13:00.245Z,5.71
2023-01-26T23:14:00.515Z,5.59
2023-01-26T23:15:00.767Z,5.72
2023-01-26T23:16:01.013Z,5.72
2023-01-26T23:17:01.288Z,5.69
2023-01-26T23:18:01.497Z,5.72
2023-01-26T23:19:01.889Z,5.69
2023-01-26T23:20:01.987Z,5.73
2023-01-26T23:21:02.271Z,5.76
2023-01-26T23:22:02.444Z,5.68
2023-01-26T23:23:02.694Z,5.72
2023-01-26T23:24:03.089Z,5.65
2023-01-26T23:25:03.210Z,5.64
2023-01-26T23:26:03.603Z,5.71
2023-01-26T23:27:03.732Z,5.79
2023-01-26T23:28:03.963Z,5.65
2023-01-26T23:29:05.157Z,5.75
2023-01-26T23:30:04.463Z,5.64
2023-01-26T23:31:04.773Z,5.68
2023-01-26T23:32:04.974Z,5.68
2023-01-26T23:33:05.187Z,5.69
2023-01-26T23:34:05.457Z,5.68
2023-01-26T23:35:05.665Z,5.64
2023-01-26T23:36:05.920Z,5.73
2023-01-26T23:37:06.219Z,5.72
2023-01-26T23:38:06.400Z,5.73
2023-01-26T23:39:06.654Z,5.72
2023-01-26T23:40:06.896Z,5.73
2023-01-26T23:41:07.160Z,5.69
2023-01-26T23:42:07.403Z,5.68
2023-01-26T23:43:16.729Z,5.72
2023-01-26T23:44:08.326Z,5.75
2023-01-26T23:45:08.077Z,5.69
2023-01-26T23:46:08.321Z,5.72
2023-01-26T23:47:08.754Z,5.69
2023-01-26T23:48:08.788Z,5.69
2023-01-26T23:49:09.067Z,5.66
2023-01-26T23:50:09.302Z,5.71
2023-01-26T23:51:09.527Z,5.73
2023-01-26T23:52:09.744Z,5.69
2023-01-26T23:53:10.016Z,5.75
2023-01-26T23:54:10.277Z,5.72
2023-01-26T23:55:10.454Z,5.68
2023-01-26T23:56:10.725Z,5.68
2023-01-26T23:57:10.920Z,5.69
2023-01-26T23:58:11.198Z,5.72
2023-01-26T23:59:11.434Z,5.69
